createdAt,value
2022-07-25T00:01:11.903Z,6.10
2022-07-25T00:04:15.426Z,5.80
2022-07-25T00:07:34.589Z,6.10
2022-07-25T00:11:18.343Z,6.00
2022-07-25T00:14:42.537Z,5.50
2022-07-25T00:17:58.424Z,6.60
2022-07-25T00:21:00.597Z,6.20
2022-07-25T00:24:43.441Z,6.70
2022-07-25T00:28:06.879Z,6.60
2022-07-25T00:31:20.229Z,6.70
2022-07-25T00:35:07.956Z,7.00
2022-07-25T00:38:33.515Z,6.80
2022-07-25T00:41:49.886Z,6.20
2022-07-25T00:45:18.939Z,6.40
2022-07-25T00:48:42.422Z,6.50
2022-07-25T00:52:02.877Z,6.70
2022-07-25T00:55:32.966Z,6.50
2022-07-25T00:58:52.760Z,7.40
2022-07-25T01:02:37.342Z,6.50
2022-07-25T01:06:19.431Z,6.90
2022-07-25T01:09:31.947Z,7.60
2022-07-25T01:13:14.406Z,6.80
2022-07-25T01:16:47.811Z,8.00
2022-07-25T01:19:56.125Z,7.50
2022-07-25T01:23:35.899Z,7.90
2022-07-25T01:26:33.198Z,7.70
2022-07-25T01:29:54.045Z,8.00
2022-07-25T01:35:52.022Z,8.10
2022-07-25T01:39:18.215Z,8.30
2022-07-25T01:42:33.741Z,8.10
2022-07-25T01:46:00.459Z,8.30
2022-07-25T01:49:33.556Z,7.30
2022-07-25T01:52:59.887Z,7.70
2022-07-25T01:56:02.755Z,8.00
2022-07-25T01:59:15.825Z,7.30
2022-07-25T02:02:22.346Z,7.40
2022-07-25T02:05:46.234Z,7.20
2022-07-25T02:09:04.217Z,7.80
2022-07-25T02:12:10.555Z,8.20
2022-07-25T02:15:34.105Z,8.40
2022-07-25T02:19:05.199Z,7.30
2022-07-25T02:22:19.419Z,7.50
2022-07-25T02:25:33.384Z,7.50
2022-07-25T02:28:39.706Z,8.00
2022-07-25T02:32:05.434Z,7.60
2022-07-25T02:35:01.645Z,8.60
2022-07-25T02:38:19.130Z,8.30
2022-07-25T02:41:28.083Z,8.10
2022-07-25T02:44:43.651Z,8.20
2022-07-25T02:47:29.809Z,8.00
2022-07-25T02:50:26.629Z,8.10
2022-07-25T02:53:47.168Z,6.90
2022-07-25T02:56:33.348Z,8.00
2022-07-25T02:59:33.934Z,8.50
2022-07-25T03:02:50.926Z,9.30
2022-07-25T03:05:39.686Z,8.20
2022-07-25T03:08:37.950Z,7.80
2022-07-25T03:11:37.752Z,8.50
2022-07-25T03:14:26.455Z,7.80
2022-07-25T03:17:52.981Z,8.00
2022-07-25T03:20:57.280Z,7.90
2022-07-25T03:24:24.014Z,7.70
2022-07-25T03:27:16.395Z,8.30
2022-07-25T03:30:30.169Z,7.90
2022-07-25T03:33:24.206Z,8.20
2022-07-25T03:36:32.956Z,9.30
2022-07-25T03:39:39.238Z,9.80
2022-07-25T03:48:55.336Z,8.80
2022-07-25T03:52:00.742Z,9.70
2022-07-25T03:54:49.636Z,9.60
2022-07-25T03:57:35.680Z,9.60
2022-07-25T04:00:24.538Z,9.20
2022-07-25T04:03:14.590Z,10.50
2022-07-25T04:06:23.682Z,10.30
2022-07-25T04:09:37.324Z,9.90
2022-07-25T04:12:30.871Z,10.50
2022-07-25T04:15:24.615Z,10.20
2022-07-25T04:18:15.726Z,10.10
2022-07-25T04:21:44.333Z,10.40
2022-07-25T04:24:47.967Z,11.40
2022-07-25T04:27:51.787Z,11.40
2022-07-25T04:30:55.170Z,11.90
2022-07-25T04:34:03.691Z,11.90
2022-07-25T04:36:59.056Z,12.20
2022-07-25T04:39:47.206Z,11.70
2022-07-25T04:43:23.995Z,10.80
2022-07-25T04:46:30.050Z,10.10
2022-07-25T04:49:16.574Z,9.40
2022-07-25T04:52:27.008Z,10.20
2022-07-25T04:55:26.076Z,8.90
2022-07-25T04:58:12.685Z,8.90
2022-07-25T05:01:28.175Z,8.60
2022-07-25T05:04:28.932Z,8.60
2022-07-25T05:07:39.080Z,9.20
2022-07-25T05:10:39.539Z,8.20
2022-07-25T05:13:34.144Z,7.50
2022-07-25T05:16:20.088Z,7.60
2022-07-25T05:19:09.799Z,7.50
2022-07-25T05:21:53.291Z,6.60
2022-07-25T05:24:39.959Z,6.80
2022-07-25T05:27:23.376Z,5.50
2022-07-25T05:30:09.402Z,5.20
2022-07-25T05:32:52.558Z,5.40
2022-07-25T05:35:54.422Z,4.60
2022-07-25T05:38:37.432Z,4.80
2022-07-25T05:41:21.259Z,4.70
2022-07-25T05:44:07.465Z,5.00
2022-07-25T05:46:51.786Z,5.50
2022-07-25T05:49:34.970Z,5.00
2022-07-25T05:52:18.056Z,4.70
2022-07-25T05:55:04.152Z,4.20
2022-07-25T05:57:47.091Z,5.00
2022-07-25T06:00:31.244Z,4.50
2022-07-25T06:03:14.374Z,5.00
2022-07-25T06:05:57.595Z,4.80
2022-07-25T06:08:42.969Z,4.60
2022-07-25T06:11:30.768Z,4.10
2022-07-25T06:14:14.858Z,4.40
2022-07-25T06:17:00.562Z,4.00
2022-07-25T06:19:43.469Z,4.10
2022-07-25T06:22:30.395Z,4.10
2022-07-25T06:25:13.512Z,5.00
2022-07-25T06:27:56.708Z,4.70
2022-07-25T06:30:39.645Z,4.50
2022-07-25T06:33:22.783Z,4.10
2022-07-25T06:36:07.002Z,3.80
2022-07-25T06:38:50.874Z,3.40
2022-07-25T06:41:37.798Z,3.90
2022-07-25T06:44:21.029Z,3.30
2022-07-25T06:47:05.815Z,4.10
2022-07-25T06:49:49.081Z,3.30
2022-07-25T06:52:32.088Z,3.60
2022-07-25T06:55:16.142Z,3.70
2022-07-25T06:57:59.040Z,3.70
2022-07-25T07:00:42.136Z,3.60
2022-07-25T07:03:28.450Z,3.30
2022-07-25T07:06:11.620Z,3.20
2022-07-25T07:08:56.982Z,3.20
2022-07-25T07:11:39.924Z,3.00
2022-07-25T07:14:23.164Z,2.80
2022-07-25T07:17:09.461Z,3.30
2022-07-25T07:19:52.457Z,3.20
2022-07-25T07:22:50.270Z,3.80
2022-07-25T07:25:33.785Z,3.00
2022-07-25T07:28:17.431Z,3.20
2022-07-25T07:31:17.394Z,3.20
2022-07-25T07:34:01.230Z,2.70
2022-07-25T07:36:44.267Z,3.60
2022-07-25T07:39:27.624Z,2.80
2022-07-25T07:42:10.807Z,2.20
2022-07-25T07:44:53.674Z,2.80
2022-07-25T07:47:36.611Z,2.40
2022-07-25T07:50:22.424Z,2.70
2022-07-25T07:53:06.881Z,2.70
2022-07-25T07:55:55.384Z,2.50
2022-07-25T07:58:38.372Z,2.90
2022-07-25T08:01:21.670Z,3.10
2022-07-25T08:04:05.296Z,2.40
2022-07-25T08:06:58.191Z,2.60
2022-07-25T08:09:41.161Z,2.60
2022-07-25T08:12:24.405Z,2.70
2022-07-25T08:15:09.403Z,2.20
2022-07-25T08:17:56.607Z,2.20
2022-07-25T08:20:42.012Z,1.90
2022-07-25T08:23:28.118Z,2.30
2022-07-25T08:26:11.503Z,2.10
2022-07-25T08:29:11.117Z,2.70
2022-07-25T08:31:57.685Z,2.50
2022-07-25T08:34:40.754Z,1.80
2022-07-25T08:37:24.510Z,2.00
2022-07-25T08:40:08.450Z,2.20
2022-07-25T08:42:52.693Z,2.40
2022-07-25T08:45:37.134Z,1.90
2022-07-25T08:48:25.542Z,2.20
2022-07-25T08:51:09.207Z,1.90
2022-07-25T08:53:52.849Z,1.40
2022-07-25T08:56:39.218Z,2.80
2022-07-25T08:59:22.358Z,1.80
2022-07-25T09:02:10.939Z,2.10
2022-07-25T09:04:58.402Z,2.20
2022-07-25T09:07:41.627Z,2.40
2022-07-25T09:10:26.815Z,2.00
2022-07-25T09:13:14.346Z,1.60
2022-07-25T09:15:59.870Z,1.90
2022-07-25T09:18:45.606Z,1.90
2022-07-25T09:21:28.602Z,1.60
2022-07-25T09:24:18.939Z,2.70
2022-07-25T09:27:12.480Z,1.80
2022-07-25T09:29:57.454Z,1.30
2022-07-25T09:32:40.305Z,1.80
2022-07-25T09:35:30.976Z,1.80
2022-07-25T09:38:16.653Z,1.80
2022-07-25T09:41:02.154Z,1.60
2022-07-25T09:43:45.154Z,2.40
2022-07-25T09:46:32.610Z,2.70
2022-07-25T09:49:16.359Z,1.50
2022-07-25T09:51:59.472Z,1.70
2022-07-25T09:54:42.405Z,2.20
2022-07-25T09:57:26.135Z,1.80
2022-07-25T10:00:10.005Z,1.90
2022-07-25T10:02:55.756Z,1.80
2022-07-25T10:05:51.773Z,2.50
2022-07-25T10:08:39.828Z,2.00
2022-07-25T10:11:25.799Z,1.70
2022-07-25T10:14:13.054Z,1.90
2022-07-25T10:16:56.819Z,2.20
2022-07-25T10:19:51.850Z,2.10
2022-07-25T10:22:57.583Z,1.70
2022-07-25T10:25:43.747Z,1.80
2022-07-25T10:28:40.582Z,1.40
2022-07-25T10:31:30.443Z,2.00
2022-07-25T10:34:16.727Z,1.60
2022-07-25T10:37:10.997Z,1.40
2022-07-25T10:39:54.568Z,1.40
2022-07-25T10:42:39.150Z,1.60
2022-07-25T10:45:26.153Z,1.00
2022-07-25T10:48:11.206Z,1.70
2022-07-25T10:51:14.729Z,1.30
2022-07-25T10:53:58.338Z,1.80
2022-07-25T10:57:00.143Z,2.60
2022-07-25T10:59:44.308Z,1.50
2022-07-25T11:02:27.436Z,1.50
2022-07-25T11:05:10.278Z,1.60
2022-07-25T11:08:20.089Z,2.00
2022-07-25T11:10:57.691Z,1.60
2022-07-25T11:13:42.628Z,2.10
2022-07-25T11:16:27.939Z,2.30
2022-07-25T11:19:21.732Z,1.30
2022-07-25T11:22:04.689Z,1.30
2022-07-25T11:24:48.151Z,1.30
2022-07-25T11:27:33.800Z,1.30
2022-07-25T11:30:20.018Z,1.40
2022-07-25T11:33:02.892Z,1.30
2022-07-25T11:35:46.256Z,1.20
2022-07-25T11:38:29.679Z,1.40
2022-07-25T11:41:12.644Z,2.00
2022-07-25T11:43:55.689Z,1.40
2022-07-25T11:46:44.134Z,1.60
2022-07-25T11:49:27.414Z,1.50
2022-07-25T11:52:23.319Z,1.60
2022-07-25T11:55:09.892Z,1.90
2022-07-25T11:58:00.347Z,1.20
2022-07-25T12:00:48.684Z,2.10
2022-07-25T12:03:38.170Z,2.10
2022-07-25T12:06:29.688Z,2.00
2022-07-25T12:09:20.941Z,1.80
2022-07-25T12:12:04.830Z,1.70
2022-07-25T12:14:47.928Z,1.60
2022-07-25T12:17:35.346Z,2.30
2022-07-25T12:20:27.989Z,1.80
2022-07-25T12:25:55.055Z,1.80
2022-07-25T12:28:38.041Z,1.90
2022-07-25T12:31:21.118Z,1.70
2022-07-25T12:34:04.195Z,2.00
2022-07-25T12:36:47.214Z,1.60
2022-07-25T12:39:30.194Z,1.80
2022-07-25T12:42:13.042Z,1.60
2022-07-25T12:44:56.530Z,1.90
2022-07-25T12:47:39.903Z,2.10
2022-07-25T12:50:27.422Z,2.30
2022-07-25T12:53:10.844Z,1.50
2022-07-25T12:55:54.138Z,1.90
2022-07-25T12:58:37.905Z,1.80
2022-07-25T13:01:21.077Z,1.70
2022-07-25T13:04:07.269Z,2.00
2022-07-25T13:06:50.436Z,2.20
2022-07-25T13:09:33.528Z,1.60
2022-07-25T13:12:16.766Z,2.20
2022-07-25T13:14:59.894Z,1.90
2022-07-25T13:18:02.945Z,2.30
2022-07-25T13:20:48.391Z,1.90
2022-07-25T13:23:31.361Z,2.60
2022-07-25T13:26:14.507Z,2.20
2022-07-25T13:29:00.031Z,2.20
2022-07-25T13:31:46.112Z,1.90
2022-07-25T13:34:31.943Z,1.80
2022-07-25T13:37:15.977Z,2.30
2022-07-25T13:39:59.084Z,2.10
2022-07-25T13:42:56.119Z,2.80
2022-07-25T13:45:40.016Z,2.20
2022-07-25T13:48:31.065Z,1.60
2022-07-25T13:51:14.822Z,1.90
2022-07-25T13:53:57.804Z,2.30
2022-07-25T13:56:41.746Z,2.40
2022-07-25T13:59:24.865Z,2.00
2022-07-25T14:02:08.025Z,1.90
2022-07-25T14:04:50.831Z,2.40
2022-07-25T14:07:37.643Z,2.10
2022-07-25T14:10:20.505Z,2.60
2022-07-25T14:13:03.450Z,1.90
2022-07-25T14:15:46.423Z,1.70
2022-07-25T14:18:31.955Z,2.20
2022-07-25T14:21:14.794Z,2.00
2022-07-25T14:23:57.803Z,1.70
2022-07-25T14:26:41.810Z,2.30
2022-07-25T14:29:30.104Z,2.50
2022-07-25T14:32:13.561Z,2.40
2022-07-25T14:34:56.585Z,1.90
2022-07-25T14:37:39.391Z,2.20
2022-07-25T14:40:22.307Z,2.30
2022-07-25T14:43:05.149Z,2.10
2022-07-25T14:45:48.152Z,2.70
2022-07-25T14:48:31.439Z,2.30
2022-07-25T14:51:14.994Z,2.10
2022-07-25T14:53:57.881Z,1.80
2022-07-25T14:56:40.944Z,1.60
2022-07-25T14:59:24.413Z,1.90
2022-07-25T15:02:07.633Z,2.20
2022-07-25T15:04:50.638Z,2.40
2022-07-25T15:07:33.730Z,2.30
2022-07-25T15:10:17.519Z,2.10
2022-07-25T15:13:28.352Z,1.70
2022-07-25T15:16:05.345Z,2.10
2022-07-25T15:19:14.466Z,2.10
2022-07-25T15:21:51.371Z,1.90
2022-07-25T15:24:57.619Z,2.00
2022-07-25T15:27:40.425Z,2.10
2022-07-25T15:30:29.061Z,2.00
2022-07-25T15:33:12.392Z,2.10
2022-07-25T15:35:55.582Z,2.50
2022-07-25T15:38:38.522Z,3.10
2022-07-25T15:41:21.534Z,2.30
2022-07-25T15:44:04.914Z,1.80
2022-07-25T15:46:48.055Z,2.20
2022-07-25T15:49:31.245Z,2.50
2022-07-25T15:52:14.254Z,2.00
2022-07-25T15:54:57.212Z,1.90
2022-07-25T15:57:40.296Z,2.10
2022-07-25T16:00:29.270Z,2.20
2022-07-25T16:03:13.952Z,2.50
2022-07-25T16:05:57.249Z,2.90
2022-07-25T16:08:40.249Z,1.90
2022-07-25T16:11:23.268Z,2.10
2022-07-25T16:14:08.876Z,2.70
2022-07-25T16:16:55.564Z,2.20
2022-07-25T16:19:38.672Z,2.10
2022-07-25T16:22:21.766Z,2.00
2022-07-25T16:25:05.651Z,2.40
2022-07-25T16:27:48.626Z,2.10
2022-07-25T16:30:31.726Z,2.00
2022-07-25T16:33:15.823Z,1.90
2022-07-25T16:35:59.065Z,2.20
2022-07-25T16:38:46.699Z,2.10
2022-07-25T16:41:38.493Z,2.10
2022-07-25T16:44:23.560Z,3.70
2022-07-25T16:47:08.119Z,2.30
2022-07-25T16:49:51.185Z,2.30
2022-07-25T16:52:34.817Z,2.30
2022-07-25T16:55:20.823Z,1.90
2022-07-25T16:58:04.062Z,2.20
2022-07-25T17:00:49.288Z,3.30
2022-07-25T17:03:34.907Z,2.90
2022-07-25T17:06:18.194Z,2.80
2022-07-25T17:09:01.333Z,2.20
2022-07-25T17:11:44.688Z,2.70
2022-07-25T17:14:30.203Z,2.70
2022-07-25T17:17:23.047Z,2.00
2022-07-25T17:20:06.817Z,2.50
2022-07-25T17:22:49.852Z,3.00
2022-07-25T17:25:35.426Z,2.20
2022-07-25T17:28:22.063Z,2.70
2022-07-25T17:31:06.793Z,2.30
2022-07-25T17:33:49.918Z,2.10
2022-07-25T17:36:32.864Z,2.10
2022-07-25T17:39:16.386Z,2.20
2022-07-25T17:41:59.601Z,2.20
2022-07-25T17:44:42.455Z,2.20
2022-07-25T17:47:27.984Z,3.20
2022-07-25T17:50:11.738Z,2.00
2022-07-25T17:53:03.416Z,2.40
2022-07-25T17:58:29.721Z,2.30
2022-07-25T18:01:12.883Z,2.30
2022-07-25T18:03:56.388Z,2.50
2022-07-25T18:06:39.383Z,2.30
2022-07-25T18:09:24.310Z,2.30
2022-07-25T18:12:07.845Z,2.70
2022-07-25T18:14:50.701Z,2.30
2022-07-25T18:17:35.934Z,2.80
2022-07-25T18:20:19.555Z,2.40
2022-07-25T18:23:04.334Z,2.60
2022-07-25T18:25:47.647Z,2.50
2022-07-25T18:28:30.809Z,3.50
2022-07-25T18:31:13.906Z,2.80
2022-07-25T18:33:57.013Z,2.90
2022-07-25T18:36:40.987Z,2.70
2022-07-25T18:39:23.998Z,3.30
2022-07-25T18:42:09.620Z,2.70
2022-07-25T18:44:52.557Z,2.80
2022-07-25T18:47:38.662Z,2.50
2022-07-25T18:50:24.677Z,2.90
2022-07-25T18:53:07.609Z,2.50
2022-07-25T18:56:19.485Z,3.30
2022-07-25T18:59:02.702Z,3.50
2022-07-25T19:01:45.877Z,2.60
2022-07-25T19:04:32.759Z,2.30
2022-07-25T19:07:15.837Z,3.80
2022-07-25T19:10:02.462Z,4.10
2022-07-25T19:12:51.427Z,3.80
2022-07-25T19:15:37.536Z,3.60
2022-07-25T19:18:29.447Z,2.80
2022-07-25T19:21:15.371Z,3.00
2022-07-25T19:24:01.582Z,4.50
2022-07-25T19:26:47.978Z,4.10
2022-07-25T19:29:32.356Z,3.20
2022-07-25T19:32:16.204Z,3.00
2022-07-25T19:35:05.575Z,4.70
2022-07-25T19:37:48.802Z,4.00
2022-07-25T19:40:32.725Z,3.60
2022-07-25T19:43:18.986Z,3.70
2022-07-25T19:46:14.564Z,5.00
2022-07-25T19:49:01.945Z,5.20
2022-07-25T19:51:48.262Z,6.00
2022-07-25T19:54:37.685Z,11.80
2022-07-25T19:57:29.617Z,11.20
2022-07-25T20:00:16.007Z,7.30
2022-07-25T20:03:23.195Z,6.90
2022-07-25T20:06:27.519Z,4.80
2022-07-25T20:09:21.104Z,4.60
2022-07-25T20:12:28.140Z,3.90
2022-07-25T20:15:18.992Z,3.90
2022-07-25T20:18:17.427Z,4.60
2022-07-25T20:21:06.207Z,3.80
2022-07-25T20:23:54.736Z,3.10
2022-07-25T20:27:07.199Z,3.10
2022-07-25T20:33:25.311Z,4.10
2022-07-25T20:36:31.817Z,3.50
2022-07-25T20:39:42.992Z,3.70
2022-07-25T20:42:50.313Z,3.50
2022-07-25T20:46:05.052Z,4.10
2022-07-25T20:49:18.389Z,3.20
2022-07-25T20:52:31.278Z,3.40
2022-07-25T20:55:33.135Z,3.10
2022-07-25T20:59:08.749Z,3.20
2022-07-25T21:02:43.311Z,3.10
2022-07-25T21:05:53.591Z,3.60
2022-07-25T21:08:51.234Z,3.10
2022-07-25T21:11:49.173Z,3.10
2022-07-25T21:14:32.421Z,3.10
2022-07-25T21:17:17.840Z,3.30
2022-07-25T21:20:06.000Z,2.70
2022-07-25T21:22:52.059Z,3.00
2022-07-25T21:25:37.518Z,3.20
2022-07-25T21:28:24.189Z,4.10
2022-07-25T21:31:29.676Z,2.80
2022-07-25T21:34:18.831Z,2.50
2022-07-25T21:37:06.348Z,3.30
2022-07-25T21:40:09.822Z,3.20
2022-07-25T21:42:53.248Z,3.30
2022-07-25T21:45:49.654Z,2.70
2022-07-25T21:49:14.689Z,3.30
2022-07-25T21:52:01.550Z,3.10
2022-07-25T21:54:49.955Z,3.10
2022-07-25T21:57:38.943Z,2.50
2022-07-25T22:00:44.607Z,3.20
2022-07-25T22:03:48.232Z,2.30
2022-07-25T22:06:31.527Z,2.80
2022-07-25T22:09:24.103Z,3.30
2022-07-25T22:12:30.284Z,3.20
2022-07-25T22:15:14.150Z,3.10
2022-07-25T22:18:06.402Z,3.40
2022-07-25T22:20:52.349Z,3.80
2022-07-25T22:23:38.436Z,3.60
2022-07-25T22:26:24.467Z,3.10
2022-07-25T22:29:15.869Z,3.70
2022-07-25T22:32:13.470Z,3.10
2022-07-25T22:35:06.278Z,2.90
2022-07-25T22:38:09.888Z,3.00
2022-07-25T22:40:56.758Z,3.30
2022-07-25T22:43:58.454Z,3.60
2022-07-25T22:47:06.396Z,3.00
2022-07-25T22:50:05.433Z,2.80
2022-07-25T22:52:55.701Z,3.10
2022-07-25T22:55:45.649Z,3.20
2022-07-25T22:58:37.989Z,3.30
2022-07-25T23:04:38.534Z,3.30
2022-07-25T23:07:33.147Z,3.60
2022-07-25T23:10:21.872Z,3.30
2022-07-25T23:13:25.147Z,3.50
2022-07-25T23:16:11.376Z,3.00
2022-07-25T23:19:02.424Z,3.40
2022-07-25T23:21:48.632Z,3.30
2022-07-25T23:24:38.091Z,3.50
2022-07-25T23:27:44.454Z,2.90
2022-07-25T23:30:50.170Z,3.80
2022-07-25T23:33:33.501Z,4.20
2022-07-25T23:36:22.483Z,3.20
2022-07-25T23:39:06.000Z,3.70
2022-07-25T23:41:56.960Z,3.70
2022-07-25T23:44:44.451Z,3.40
2022-07-25T23:47:39.786Z,4.20
2022-07-25T23:50:32.576Z,4.50
2022-07-25T23:53:18.506Z,3.70
2022-07-25T23:56:09.642Z,4.10
2022-07-25T23:58:55.711Z,3.70
